Time;durP1;ratioP1;P1;durP2;ratioP2;P2;SDS_P1;SDS_P2;PMS_P1;PMS_P2;Temp;Humidity;BMP_temperature;BMP_pressure;BME280_temperature;BME280_humidity;BME280_pressure;Samples;Min_cycle;Max_cycle;Signal;HPM_P1;HPM_P2
2022/04/10 00:00:07;;;;;;;6.60;3.80;;;;;;;;;;4972339;28;20229;-71
2022/04/10 00:02:33;;;;;;;3.58;2.85;;;;;;;;;;4956973;28;20876;-74
2022/04/10 00:04:59;;;;;;;6.70;3.53;;;;;;;;;;4957390;28;20268;-73
2022/04/10 00:07:25;;;;;;;6.87;3.57;;;;;;;;;;4957194;28;20324;-72
2022/04/10 00:09:51;;;;;;;8.20;4.28;;;;;;;;;;4957009;28;20476;-73
2022/04/10 00:12:17;;;;;;;7.57;3.17;;;;;;;;;;4956748;28;20199;-73
2022/04/10 00:14:45;;;;;;;9.70;4.38;;;;;;;;;;4957060;28;20413;-72
2022/04/10 00:17:11;;;;;;;6.70;3.58;;;;;;;;;;4957131;28;20208;-74
2022/04/10 00:19:37;;;;;;;5.20;3.23;;;;;;;;;;4957020;28;20227;-74
2022/04/10 00:22:03;;;;;;;8.25;3.78;;;;;;;;;;4955213;29;20437;-72
2022/04/10 00:24:29;;;;;;;9.43;4.35;;;;;;;;;;4957083;28;20189;-73
2022/04/10 00:26:55;;;;;;;8.48;4.18;;;;;;;;;;4957029;28;20597;-74
2022/04/10 00:29:21;;;;;;;7.07;4.13;;;;;;;;;;4956383;28;20184;-74
2022/04/10 00:31:47;;;;;;;5.77;3.50;;;;;;;;;;4956527;28;20212;-73
2022/04/10 00:34:13;;;;;;;11.93;3.85;;;;;;;;;;4956673;28;20422;-72
2022/04/10 00:36:39;;;;;;;4.88;4.38;;;;;;;;;;4956886;28;20554;-72
2022/04/10 00:39:05;;;;;;;8.07;4.00;;;;;;;;;;4956688;28;20184;-72
2022/04/10 00:41:31;;;;;;;6.20;3.83;;;;;;;;;;4956291;28;20437;-74
2022/04/10 00:44:04;;;;;;;4.93;3.80;;;;;;;;;;4956612;28;20174;-74
2022/04/10 00:46:30;;;;;;;6.28;3.80;;;;;;;;;;4956721;28;20192;-73
2022/04/10 00:48:56;;;;;;;5.00;3.93;;;;;;;;;;4956691;28;20185;-72
2022/04/10 00:51:41;;;;;;;8.70;4.75;;;;;;;;;;4955929;28;20472;-73
2022/04/10 00:54:26;;;;;;;5.68;4.20;;;;;;;;;;4956543;28;20173;-74
2022/04/10 00:56:53;;;;;;;7.55;4.60;;;;;;;;;;4956478;28;20266;-74
2022/04/10 00:59:20;;;;;;;5.25;3.55;;;;;;;;;;4956303;28;20178;-74
2022/04/10 01:01:47;;;;;;;8.13;4.30;;;;;;;;;;4955807;28;20200;-73
2022/04/10 01:04:13;;;;;;;5.90;4.00;;;;;;;;;;4956060;28;20261;-73
2022/04/10 01:06:40;;;;;;;5.57;4.00;;;;;;;;;;4956257;28;20539;-73
2022/04/10 01:09:06;;;;;;;13.20;4.13;;;;;;;;;;4956048;28;20178;-72
2022/04/10 01:11:36;;;;;;;8.48;4.00;;;;;;;;;;4955584;28;20395;-73
2022/04/10 01:14:04;;;;;;;7.05;4.35;;;;;;;;;;4956023;28;20184;-73
2022/04/10 01:16:33;;;;;;;7.00;4.10;;;;;;;;;;4955838;28;20581;-73
2022/04/10 01:19:01;;;;;;;6.03;4.10;;;;;;;;;;4956102;28;20188;-73
2022/04/10 01:21:28;;;;;;;6.10;4.32;;;;;;;;;;4955495;28;20282;-73
2022/04/10 01:23:55;;;;;;;6.68;4.00;;;;;;;;;;4955867;28;20184;-72
2022/04/10 01:26:22;;;;;;;15.05;6.00;;;;;;;;;;4955571;28;20603;-74
2022/04/10 01:28:58;;;;;;;5.30;4.18;;;;;;;;;;4955620;28;20185;-74
2022/04/10 01:31:24;;;;;;;7.32;3.97;;;;;;;;;;4955335;28;20253;-71
2022/04/10 01:33:50;;;;;;;9.48;4.75;;;;;;;;;;4955792;28;20554;-74
2022/04/10 01:36:17;;;;;;;6.07;4.60;;;;;;;;;;4955602;28;20180;-74
2022/04/10 01:38:44;;;;;;;7.47;4.40;;;;;;;;;;4955584;28;20185;-72
2022/04/10 01:41:16;;;;;;;5.00;4.05;;;;;;;;;;4954646;28;20277;-74
2022/04/10 01:43:49;;;;;;;5.30;4.13;;;;;;;;;;4955507;28;20224;-74
2022/04/10 01:46:16;;;;;;;5.93;4.35;;;;;;;;;;4955586;28;20525;-74
2022/04/10 01:48:42;;;;;;;5.35;3.88;;;;;;;;;;4955316;28;20177;-74
2022/04/10 01:51:08;;;;;;;8.02;5.10;;;;;;;;;;4954841;28;20213;-71
2022/04/10 01:53:35;;;;;;;5.30;3.85;;;;;;;;;;4955258;28;20271;-72
2022/04/10 01:56:01;;;;;;;6.93;3.67;;;;;;;;;;4955518;28;20272;-74
2022/04/10 01:58:27;;;;;;;9.82;4.60;;;;;;;;;;4970377;28;20272;-74
2022/04/10 02:00:53;;;;;;;7.40;4.30;;;;;;;;;;4954943;28;20178;-73
2022/04/10 02:03:19;;;;;;;5.10;3.73;;;;;;;;;;4955340;28;20181;-72
2022/04/10 02:05:45;;;;;;;6.30;3.77;;;;;;;;;;4955379;28;20434;-74
2022/04/10 02:08:13;;;;;;;5.00;3.60;;;;;;;;;;4970083;28;20439;-72
2022/04/10 02:10:39;;;;;;;8.63;4.38;;;;;;;;;;4954645;28;20470;-73
2022/04/10 02:13:05;;;;;;;6.80;4.13;;;;;;;;;;4955060;28;20223;-74
2022/04/10 02:15:31;;;;;;;6.90;4.32;;;;;;;;;;4955076;28;20260;-72
2022/04/10 02:17:57;;;;;;;10.00;4.53;;;;;;;;;;4955229;28;20257;-73
2022/04/10 02:20:23;;;;;;;4.53;3.70;;;;;;;;;;4954739;28;20279;-74
2022/04/10 02:22:52;;;;;;;8.43;3.88;;;;;;;;;;4954809;28;20783;-73
2022/04/10 02:25:18;;;;;;;12.65;4.53;;;;;;;;;;4954959;28;20176;-73
2022/04/10 02:27:44;;;;;;;5.43;4.10;;;;;;;;;;4969869;28;20199;-73
2022/04/10 02:30:12;;;;;;;6.10;4.60;;;;;;;;;;4954559;28;20472;-73
2022/04/10 02:32:38;;;;;;;3.50;3.20;;;;;;;;;;4969668;28;20950;-73
2022/04/10 02:35:04;;;;;;;7.97;4.00;;;;;;;;;;4954717;28;20185;-75
2022/04/10 02:37:30;;;;;;;8.25;4.53;;;;;;;;;;4954919;28;20709;-73
2022/04/10 02:39:56;;;;;;;7.13;4.27;;;;;;;;;;4954875;28;20275;-73
2022/04/10 02:42:22;;;;;;;8.80;4.30;;;;;;;;;;4969283;28;20448;-73
2022/04/10 02:44:48;;;;;;;7.93;3.88;;;;;;;;;;4954987;28;20188;-73
2022/04/10 02:47:14;;;;;;;9.87;4.83;;;;;;;;;;4955040;28;20236;-73
2022/04/10 02:49:40;;;;;;;11.43;3.83;;;;;;;;;;4954925;28;20467;-73
2022/04/10 02:52:06;;;;;;;5.03;3.93;;;;;;;;;;4955679;28;20213;-74
2022/04/10 02:54:32;;;;;;;7.72;3.95;;;;;;;;;;4958678;28;20418;-75
2022/04/10 02:56:58;;;;;;;5.32;3.90;;;;;;;;;;4958588;28;20539;-72
2022/04/10 02:59:24;;;;;;;6.70;4.23;;;;;;;;;;4958435;28;20179;-73
2022/04/10 03:01:50;;;;;;;6.53;4.30;;;;;;;;;;4958163;28;20452;-74
2022/04/10 03:04:17;;;;;;;5.18;3.65;;;;;;;;;;4958224;28;20496;-71
2022/04/10 03:06:43;;;;;;;12.20;4.43;;;;;;;;;;4958387;28;20538;-73
2022/04/10 03:09:09;;;;;;;11.48;4.82;;;;;;;;;;4958242;28;20588;-74
2022/04/10 03:11:35;;;;;;;6.43;4.85;;;;;;;;;;4957799;28;20644;-74
2022/04/10 03:14:02;;;;;;;10.40;4.57;;;;;;;;;;4958352;28;20632;-72
2022/04/10 03:16:28;;;;;;;8.68;4.07;;;;;;;;;;4958253;28;20589;-72
2022/04/10 03:18:54;;;;;;;4.10;3.67;;;;;;;;;;4958248;28;20273;-72
2022/04/10 03:21:20;;;;;;;8.13;4.68;;;;;;;;;;4957592;28;20468;-73
2022/04/10 03:23:46;;;;;;;6.57;4.75;;;;;;;;;;4958034;28;20177;-74
2022/04/10 03:26:12;;;;;;;5.03;3.63;;;;;;;;;;4958004;28;20193;-73
2022/04/10 03:28:38;;;;;;;9.40;4.10;;;;;;;;;;4957868;28;20189;-72
2022/04/10 03:31:04;;;;;;;6.22;4.28;;;;;;;;;;4957363;28;20214;-74
2022/04/10 03:33:30;;;;;;;8.38;4.38;;;;;;;;;;4957635;28;20185;-74
2022/04/10 03:35:56;;;;;;;7.53;4.77;;;;;;;;;;4957829;28;20185;-73
2022/04/10 03:38:22;;;;;;;7.05;3.72;;;;;;;;;;4957781;28;20791;-74
2022/04/10 03:40:48;;;;;;;11.93;4.78;;;;;;;;;;4957650;28;20191;-72
2022/04/10 03:43:14;;;;;;;7.55;4.68;;;;;;;;;;4957770;28;20177;-74
2022/04/10 03:45:41;;;;;;;9.70;5.18;;;;;;;;;;4957646;28;20181;-73
2022/04/10 03:48:07;;;;;;;10.20;5.22;;;;;;;;;;4957665;28;20173;-74
2022/04/10 03:50:34;;;;;;;17.50;5.07;;;;;;;;;;4956931;28;20203;-73
2022/04/10 03:53:00;;;;;;;7.88;4.40;;;;;;;;;;4957443;28;20268;-74
2022/04/10 03:55:26;;;;;;;5.45;3.85;;;;;;;;;;4957328;28;20245;-74
2022/04/10 03:57:52;;;;;;;7.13;4.20;;;;;;;;;;4957482;28;20589;-72
2022/04/10 04:00:21;;;;;;;6.20;3.77;;;;;;;;;;4972070;28;20184;-73
2022/04/10 04:02:47;;;;;;;14.00;4.55;;;;;;;;;;4957298;28;20436;-73
2022/04/10 04:05:13;;;;;;;9.20;4.10;;;;;;;;;;4956790;28;20190;-71
2022/04/10 04:07:40;;;;;;;6.97;4.35;;;;;;;;;;4957261;28;20419;-73
2022/04/10 04:10:06;;;;;;;8.15;4.45;;;;;;;;;;4957199;28;20201;-75
2022/04/10 04:12:34;;;;;;;8.50;4.75;;;;;;;;;;4956863;28;20229;-73
2022/04/10 04:15:00;;;;;;;12.07;4.70;;;;;;;;;;4957076;28;20283;-74
2022/04/10 04:17:26;;;;;;;7.45;5.72;;;;;;;;;;4971861;28;20261;-74
2022/04/10 04:19:53;;;;;;;14.18;4.75;;;;;;;;;;4956883;28;20190;-72
2022/04/10 04:22:20;;;;;;;8.50;4.40;;;;;;;;;;4955451;28;20202;-74
2022/04/10 04:24:46;;;;;;;8.43;4.78;;;;;;;;;;4957004;28;20183;-73
2022/04/10 04:27:12;;;;;;;7.53;4.63;;;;;;;;;;4956896;28;20273;-74
2022/04/10 04:29:38;;;;;;;15.65;5.68;;;;;;;;;;4956649;28;20682;-74
2022/04/10 04:32:04;;;;;;;9.23;4.63;;;;;;;;;;4956306;28;20619;-73
2022/04/10 04:34:30;;;;;;;9.30;4.53;;;;;;;;;;4956737;28;20182;-74
2022/04/10 04:36:56;;;;;;;9.07;5.10;;;;;;;;;;4956801;28;20178;-74
2022/04/10 04:39:22;;;;;;;8.60;4.35;;;;;;;;;;4956555;28;20269;-73
2022/04/10 04:41:48;;;;;;;8.10;5.18;;;;;;;;;;4956189;28;20292;-73
2022/04/10 04:44:14;;;;;;;10.43;5.70;;;;;;;;;;4956502;28;20186;-74
2022/04/10 04:46:40;;;;;;;12.27;5.63;;;;;;;;;;4956599;28;20274;-74
2022/04/10 04:49:06;;;;;;;9.98;6.43;;;;;;;;;;4956428;28;20206;-74
2022/04/10 04:51:36;;;;;;;8.43;6.83;;;;;;;;;;4955841;28;20646;-73
2022/04/10 04:54:03;;;;;;;10.88;6.15;;;;;;;;;;4956215;28;20415;-74
2022/04/10 04:56:29;;;;;;;10.23;5.45;;;;;;;;;;4971233;28;20651;-72
2022/04/10 04:58:55;;;;;;;12.13;7.13;;;;;;;;;;4956535;28;20209;-73
2022/04/10 05:01:21;;;;;;;10.15;5.28;;;;;;;;;;4970720;28;20831;-74
2022/04/10 05:03:49;;;;;;;10.00;6.95;;;;;;;;;;4956261;28;20578;-74
2022/04/10 05:06:15;;;;;;;12.40;7.18;;;;;;;;;;4955920;28;20179;-74
2022/04/10 05:08:41;;;;;;;10.35;7.05;;;;;;;;;;4956086;28;20190;-73
2022/04/10 05:11:11;;;;;;;13.32;6.68;;;;;;;;;;4955631;28;20577;-73
2022/04/10 05:13:37;;;;;;;11.98;6.88;;;;;;;;;;4956080;28;20186;-74
2022/04/10 05:16:03;;;;;;;8.45;6.40;;;;;;;;;;4969981;28;20180;-73
2022/04/10 05:18:29;;;;;;;14.43;7.35;;;;;;;;;;4956029;28;20610;-74
2022/04/10 05:20:55;;;;;;;10.75;7.10;;;;;;;;;;4955614;28;20261;-74
2022/04/10 05:23:21;;;;;;;12.38;6.90;;;;;;;;;;4955963;28;20681;-73
2022/04/10 05:25:48;;;;;;;15.15;7.40;;;;;;;;;;4955899;28;20181;-73
2022/04/10 05:28:14;;;;;;;9.23;6.00;;;;;;;;;;4955617;29;20184;-73
2022/04/10 05:30:40;;;;;;;14.02;7.35;;;;;;;;;;4955259;28;20234;-73
2022/04/10 05:33:06;;;;;;;7.60;6.47;;;;;;;;;;4955830;28;20181;-73
2022/04/10 05:35:33;;;;;;;10.77;6.63;;;;;;;;;;4955661;28;20210;-73
2022/04/10 05:37:59;;;;;;;10.30;6.45;;;;;;;;;;4955616;28;20411;-75
2022/04/10 05:40:25;;;;;;;9.93;7.60;;;;;;;;;;4954920;28;20190;-73
2022/04/10 05:42:51;;;;;;;12.77;7.15;;;;;;;;;;4955535;28;20261;-73
2022/04/10 05:45:17;;;;;;;11.37;7.80;;;;;;;;;;4955511;28;20182;-75
2022/04/10 05:47:44;;;;;;;13.50;7.22;;;;;;;;;;4955557;28;20505;-76
2022/04/10 05:50:10;;;;;;;12.30;7.03;;;;;;;;;;4955248;28;20306;-75
2022/04/10 05:52:40;;;;;;;10.30;6.95;;;;;;;;;;4955207;28;20219;-74
2022/04/10 05:55:07;;;;;;;9.63;6.35;;;;;;;;;;4955668;28;20177;-74
2022/04/10 05:57:33;;;;;;;12.15;7.90;;;;;;;;;;4955279;28;20254;-74
2022/04/10 05:59:59;;;;;;;11.82;6.97;;;;;;;;;;4955250;28;20595;-73
2022/04/10 06:02:25;;;;;;;13.10;7.65;;;;;;;;;;4954704;28;20197;-74
2022/04/10 06:04:50;;;;;;;10.30;7.10;;;;;;;;;;4955168;28;20277;-74
2022/04/10 06:07:16;;;;;;;11.80;7.40;;;;;;;;;;4955469;28;20464;-73
2022/04/10 06:09:43;;;;;;;15.50;7.80;;;;;;;;;;4955069;28;20431;-74
2022/04/10 06:12:09;;;;;;;11.50;6.90;;;;;;;;;;4954768;28;20437;-73
2022/04/10 06:14:35;;;;;;;11.18;6.75;;;;;;;;;;4955058;28;20584;-74
2022/04/10 06:17:02;;;;;;;12.35;7.15;;;;;;;;;;4955132;28;20208;-74
2022/04/10 06:19:28;;;;;;;9.48;6.68;;;;;;;;;;4970014;28;20228;-72
2022/04/10 06:21:54;;;;;;;14.73;8.45;;;;;;;;;;4969479;28;20202;-75
2022/04/10 06:24:21;;;;;;;18.20;7.13;;;;;;;;;;4955064;28;20552;-73
2022/04/10 06:26:51;;;;;;;10.13;7.35;;;;;;;;;;4955683;28;20233;-73
2022/04/10 06:29:17;;;;;;;13.73;7.03;;;;;;;;;;4973805;28;20700;-72
2022/04/10 06:31:43;;;;;;;11.73;7.25;;;;;;;;;;4958555;28;20342;-73
2022/04/10 06:34:09;;;;;;;9.05;7.57;;;;;;;;;;4958838;28;20178;-72
2022/04/10 06:36:35;;;;;;;11.00;6.90;;;;;;;;;;4958750;28;20721;-74
2022/04/10 06:39:01;;;;;;;9.40;6.97;;;;;;;;;;4973551;28;20194;-75
2022/04/10 06:41:27;;;;;;;11.67;6.10;;;;;;;;;;4958435;28;20199;-74
2022/04/10 06:43:53;;;;;;;11.20;6.70;;;;;;;;;;4958720;28;20418;-71
2022/04/10 06:46:19;;;;;;;12.37;6.47;;;;;;;;;;4958812;28;20423;-74
2022/04/10 06:48:45;;;;;;;12.73;7.80;;;;;;;;;;4958656;28;20463;-74
2022/04/10 06:51:11;;;;;;;13.93;7.10;;;;;;;;;;4957981;28;20486;-73
2022/04/10 06:53:37;;;;;;;13.03;7.20;;;;;;;;;;4973403;28;20470;-74
2022/04/10 06:56:03;;;;;;;16.70;7.60;;;;;;;;;;4958761;28;20414;-73
2022/04/10 06:58:29;;;;;;;13.93;7.85;;;;;;;;;;4958680;28;20421;-72
2022/04/10 07:00:54;;;;;;;12.63;7.73;;;;;;;;;;4957885;28;20213;-72
2022/04/10 07:03:20;;;;;;;10.87;7.73;;;;;;;;;;4958425;28;20421;-73
2022/04/10 07:05:48;;;;;;;9.43;7.83;;;;;;;;;;4958360;28;20428;-74
2022/04/10 07:08:15;;;;;;;22.67;9.02;;;;;;;;;;4958479;28;20415;-72
2022/04/10 07:10:41;;;;;;;14.55;7.28;;;;;;;;;;4956772;28;20612;-72
2022/04/10 07:13:07;;;;;;;10.30;7.90;;;;;;;;;;4958135;28;20187;-73
2022/04/10 07:15:33;;;;;;;9.55;8.48;;;;;;;;;;4958166;28;20175;-74
2022/04/10 07:18:00;;;;;;;20.17;8.25;;;;;;;;;;4958283;28;20186;-73
2022/04/10 07:20:26;;;;;;;13.35;8.90;;;;;;;;;;4957851;28;20179;-74
2022/04/10 07:25:37;;;;;;;16.83;8.63;;;;;;;;;;4958403;28;20194;-72
2022/04/10 07:28:04;;;;;;;12.73;7.93;;;;;;;;;;4957993;28;20179;-74
2022/04/10 07:30:31;;;;;;;13.30;8.07;;;;;;;;;;4957542;28;20223;-74
2022/04/10 07:32:58;;;;;;;10.90;7.30;;;;;;;;;;4957672;28;20247;-71
2022/04/10 07:35:27;;;;;;;14.15;7.50;;;;;;;;;;4972519;28;20270;-73
2022/04/10 07:37:53;;;;;;;18.98;8.57;;;;;;;;;;4957188;28;20287;-72
2022/04/10 07:40:19;;;;;;;18.77;8.55;;;;;;;;;;4956954;28;20185;-73
2022/04/10 07:42:45;;;;;;;12.50;7.30;;;;;;;;;;4957569;28;20204;-72
2022/04/10 07:47:25;;;;;;;11.68;7.63;;;;;;;;;;4957638;28;20217;-72
2022/04/10 07:48:01;;;;;;;14.90;8.02;;;;;;;;;;4957562;28;20192;-74
2022/04/10 07:50:28;;;;;;;11.13;7.18;;;;;;;;;;4956973;28;20211;-73
2022/04/10 07:52:55;;;;;;;13.50;6.70;;;;;;;;;;4957403;28;20192;-74
2022/04/10 07:55:22;;;;;;;11.48;7.07;;;;;;;;;;4957494;28;20205;-74
2022/04/10 07:57:48;;;;;;;11.65;6.95;;;;;;;;;;4957345;28;20541;-73
2022/04/10 08:00:17;;;;;;;9.88;7.63;;;;;;;;;;4957253;28;20201;-72
2022/04/10 08:02:46;;;;;;;13.82;7.30;;;;;;;;;;4957436;28;20212;-75
2022/04/10 08:05:13;;;;;;;12.65;7.38;;;;;;;;;;4957387;28;20233;-74
2022/04/10 08:07:39;;;;;;;8.93;5.55;;;;;;;;;;4957351;28;20184;-75
2022/04/10 08:10:05;;;;;;;7.50;5.32;;;;;;;;;;4957322;28;20842;-74
2022/04/10 08:12:31;;;;;;;11.45;7.28;;;;;;;;;;4971822;28;20620;-74
2022/04/10 08:14:58;;;;;;;9.00;4.40;;;;;;;;;;4957254;28;20180;-74
2022/04/10 08:17:24;;;;;;;7.97;5.80;;;;;;;;;;4957096;28;20419;-74
2022/04/10 08:19:50;;;;;;;10.13;5.10;;;;;;;;;;4956837;28;20177;-74
2022/04/10 08:22:16;;;;;;;9.00;4.47;;;;;;;;;;4956587;28;20212;-74
2022/04/10 08:24:42;;;;;;;7.77;3.83;;;;;;;;;;4956905;28;20581;-73
2022/04/10 08:27:08;;;;;;;8.93;3.37;;;;;;;;;;4956638;28;20412;-74
2022/04/10 08:29:34;;;;;;;5.65;3.67;;;;;;;;;;4956812;28;20413;-73
2022/04/10 08:32:00;;;;;;;8.40;2.90;;;;;;;;;;4956447;28;20255;-74
2022/04/10 08:34:26;;;;;;;5.10;2.87;;;;;;;;;;4956941;28;20765;-72
2022/04/10 08:36:52;;;;;;;9.60;3.83;;;;;;;;;;4956687;28;20476;-74
2022/04/10 08:39:18;;;;;;;6.23;3.73;;;;;;;;;;4956595;28;20706;-74
2022/04/10 08:41:46;;;;;;;7.83;2.70;;;;;;;;;;4955898;28;20797;-72
2022/04/10 08:44:13;;;;;;;5.90;3.45;;;;;;;;;;4956422;28;20409;-74
2022/04/10 08:46:40;;;;;;;5.60;2.78;;;;;;;;;;4956688;28;20641;-73
2022/04/10 08:49:06;;;;;;;4.70;2.42;;;;;;;;;;4956641;28;20598;-73
2022/04/10 08:51:32;;;;;;;4.57;2.20;;;;;;;;;;4955776;28;20248;-72
2022/04/10 08:54:00;;;;;;;3.35;1.90;;;;;;;;;;4956315;28;20581;-72
2022/04/10 08:56:26;;;;;;;8.05;2.90;;;;;;;;;;4956535;28;20233;-74
2022/04/10 08:58:52;;;;;;;5.63;2.63;;;;;;;;;;4956436;28;20257;-74
2022/04/10 09:01:19;;;;;;;8.43;3.80;;;;;;;;;;4956083;28;20435;-73
2022/04/10 09:03:46;;;;;;;4.70;2.95;;;;;;;;;;4956335;28;20412;-74
2022/04/10 09:06:12;;;;;;;5.70;2.50;;;;;;;;;;4956156;28;20186;-74
2022/04/10 09:08:38;;;;;;;4.05;2.58;;;;;;;;;;4956043;28;20189;-73
2022/04/10 09:11:05;;;;;;;3.67;2.75;;;;;;;;;;4955585;28;20215;-72
2022/04/10 09:13:51;;;;;;;6.97;2.78;;;;;;;;;;4956286;28;20541;-73
2022/04/10 09:16:21;;;;;;;5.25;2.70;;;;;;;;;;4956198;28;20195;-74
2022/04/10 09:18:50;;;;;;;3.95;2.50;;;;;;;;;;4956218;28;20218;-73
2022/04/10 09:21:17;;;;;;;5.50;2.65;;;;;;;;;;4970623;28;20257;-73
2022/04/10 09:23:46;;;;;;;4.15;2.50;;;;;;;;;;4970875;28;20642;-72
2022/04/10 09:26:13;;;;;;;10.95;3.42;;;;;;;;;;4955728;28;20194;-73
2022/04/10 09:28:42;;;;;;;4.43;2.80;;;;;;;;;;4955783;28;20178;-74
2022/04/10 09:31:25;;;;;;;3.50;2.25;;;;;;;;;;4955435;28;20236;-75
2022/04/10 09:33:52;;;;;;;7.25;3.20;;;;;;;;;;4955668;28;20233;-73
2022/04/10 09:36:37;;;;;;;3.35;2.42;;;;;;;;;;4955527;28;20658;-73
2022/04/10 09:39:07;;;;;;;6.75;2.95;;;;;;;;;;4955671;28;20519;-74
2022/04/10 09:41:33;;;;;;;2.80;1.33;;;;;;;;;;4955232;28;20308;-74
2022/04/10 09:44:00;;;;;;;5.20;2.80;;;;;;;;;;4955608;28;20190;-73
2022/04/10 09:46:26;;;;;;;4.20;2.30;;;;;;;;;;4955308;28;20450;-75
2022/04/10 09:48:53;;;;;;;4.00;2.40;;;;;;;;;;4955569;28;20429;-75
2022/04/10 09:51:18;;;;;;;3.73;2.27;;;;;;;;;;4954859;28;20515;-73
2022/04/10 09:54:01;;;;;;;8.10;2.50;;;;;;;;;;4970350;28;20457;-74
2022/04/10 09:56:28;;;;;;;3.77;1.90;;;;;;;;;;4955344;28;20449;-74
2022/04/10 09:58:56;;;;;;;6.53;2.57;;;;;;;;;;4955328;28;20809;-75
2022/04/10 10:01:22;;;;;;;4.80;2.27;;;;;;;;;;4954570;28;20498;-72
2022/04/10 10:03:49;;;;;;;6.30;2.73;;;;;;;;;;4955489;28;20421;-76
2022/04/10 10:06:15;;;;;;;7.03;2.83;;;;;;;;;;4955423;28;20424;-74
2022/04/10 10:08:42;;;;;;;4.23;2.73;;;;;;;;;;4954103;28;20420;-75
2022/04/10 10:11:08;;;;;;;7.77;2.43;;;;;;;;;;4954721;28;20476;-73
2022/04/10 10:13:37;;;;;;;3.20;2.40;;;;;;;;;;4970122;28;20923;-75
2022/04/10 10:16:03;;;;;;;5.30;3.40;;;;;;;;;;4969942;28;20419;-73
2022/04/10 10:18:29;;;;;;;3.53;2.07;;;;;;;;;;4954938;28;20436;-73
2022/04/10 10:20:55;;;;;;;6.60;2.40;;;;;;;;;;4969554;28;20418;-72
2022/04/10 10:23:22;;;;;;;4.37;2.07;;;;;;;;;;4954976;28;20449;-73
2022/04/10 10:25:48;;;;;;;5.00;2.57;;;;;;;;;;4969799;28;20451;-74
2022/04/10 10:28:27;;;;;;;4.07;2.10;;;;;;;;;;4955019;28;20440;-74
2022/04/10 10:31:11;;;;;;;2.87;2.10;;;;;;;;;;4954368;28;20495;-72
2022/04/10 10:33:38;;;;;;;5.73;2.30;;;;;;;;;;4954955;28;20749;-74
2022/04/10 10:36:07;;;;;;;4.72;2.50;;;;;;;;;;4954938;28;20496;-75
2022/04/10 10:38:34;;;;;;;3.40;2.60;;;;;;;;;;4954798;28;20177;-74
2022/04/10 10:41:10;;;;;;;5.97;2.03;;;;;;;;;;4954367;28;20253;-74
2022/04/10 10:43:36;;;;;;;3.58;2.30;;;;;;;;;;4954753;28;20183;-75
2022/04/10 10:46:02;;;;;;;3.80;2.28;;;;;;;;;;4954741;28;20178;-73
2022/04/10 10:48:34;;;;;;;4.23;2.60;;;;;;;;;;4954498;28;20232;-72
2022/04/10 10:51:01;;;;;;;5.03;2.45;;;;;;;;;;4953991;28;20548;-73
2022/04/10 10:53:59;;;;;;;7.32;2.65;;;;;;;;;;4954836;28;20660;-72
2022/04/10 10:56:32;;;;;;;2.95;2.10;;;;;;;;;;4953699;28;20197;-73
2022/04/10 10:59:17;;;;;;;3.30;2.37;;;;;;;;;;4955018;28;20184;-73
2022/04/10 11:02:02;;;;;;;3.03;2.30;;;;;;;;;;4954293;28;20423;-72
2022/04/10 11:04:28;;;;;;;2.63;2.27;;;;;;;;;;4954712;28;20416;-74
2022/04/10 11:06:54;;;;;;;2.37;2.17;;;;;;;;;;4954571;28;20442;-73
2022/04/10 11:09:31;;;;;;;2.38;2.17;;;;;;;;;;4954665;28;20799;-74
2022/04/10 11:12:00;;;;;;;4.47;2.73;;;;;;;;;;4954101;28;20217;-72
2022/04/10 11:14:36;;;;;;;4.67;2.37;;;;;;;;;;4958013;28;20431;-73
2022/04/10 11:17:15;;;;;;;4.70;3.03;;;;;;;;;;4958002;28;20519;-74
2022/04/10 11:19:42;;;;;;;4.10;2.67;;;;;;;;;;4958245;28;20461;-74
2022/04/10 11:22:08;;;;;;;4.63;2.40;;;;;;;;;;4957580;28;20436;-73
2022/04/10 11:24:37;;;;;;;6.17;2.60;;;;;;;;;;4958367;28;20421;-73
2022/04/10 11:27:06;;;;;;;6.37;2.60;;;;;;;;;;4957711;28;20420;-73
2022/04/10 11:29:33;;;;;;;4.40;1.70;;;;;;;;;;4957714;28;20436;-74
2022/04/10 11:32:03;;;;;;;4.40;1.63;;;;;;;;;;4957421;28;20479;-74
2022/04/10 11:34:29;;;;;;;3.83;1.80;;;;;;;;;;4957852;28;20431;-73
2022/04/10 11:37:00;;;;;;;3.07;1.87;;;;;;;;;;4957728;28;20391;-74
2022/04/10 11:39:36;;;;;;;3.87;2.20;;;;;;;;;;4957795;28;20417;-74
2022/04/10 11:42:03;;;;;;;2.30;1.60;;;;;;;;;;4957189;28;20436;-73
2022/04/10 11:44:30;;;;;;;4.03;1.80;;;;;;;;;;4972590;28;20794;-74
2022/04/10 11:46:56;;;;;;;3.43;2.27;;;;;;;;;;4957523;28;20413;-74
2022/04/10 11:49:22;;;;;;;3.20;1.57;;;;;;;;;;4957351;28;20428;-73
2022/04/10 11:51:55;;;;;;;4.03;1.80;;;;;;;;;;4956956;28;20838;-74
2022/04/10 11:54:25;;;;;;;2.07;1.50;;;;;;;;;;4957426;28;20488;-73
2022/04/10 11:56:51;;;;;;;2.97;1.57;;;;;;;;;;4957331;28;20435;-72
2022/04/10 11:59:20;;;;;;;2.03;1.53;;;;;;;;;;4957340;28;20834;-72
2022/04/10 12:01:48;;;;;;;2.50;1.77;;;;;;;;;;4971800;28;20481;-72
2022/04/10 12:04:14;;;;;;;3.27;1.80;;;;;;;;;;4957297;28;20571;-73
2022/04/10 12:06:40;;;;;;;3.37;1.90;;;;;;;;;;4957365;28;20408;-73
2022/04/10 12:09:06;;;;;;;2.93;1.60;;;;;;;;;;4957345;28;20925;-73
2022/04/10 12:11:39;;;;;;;2.40;1.77;;;;;;;;;;4956658;28;20818;-72
2022/04/10 12:14:15;;;;;;;5.50;1.83;;;;;;;;;;4957077;28;20790;-72
2022/04/10 12:16:43;;;;;;;3.10;1.93;;;;;;;;;;4957116;28;20420;-72
2022/04/10 12:19:09;;;;;;;4.83;1.80;;;;;;;;;;4957057;28;20417;-74
2022/04/10 12:21:35;;;;;;;6.70;2.00;;;;;;;;;;4956454;28;20788;-73
2022/04/10 12:24:03;;;;;;;1.80;1.60;;;;;;;;;;4956927;28;20603;-74
2022/04/10 12:26:29;;;;;;;3.20;1.50;;;;;;;;;;4956771;28;20840;-73
2022/04/10 12:28:55;;;;;;;2.83;1.70;;;;;;;;;;4956707;28;20427;-74
2022/04/10 12:31:21;;;;;;;3.23;2.00;;;;;;;;;;4956345;28;20860;-73
2022/04/10 12:33:47;;;;;;;5.17;1.57;;;;;;;;;;4956773;28;20423;-73
2022/04/10 12:36:17;;;;;;;3.37;1.80;;;;;;;;;;4955632;29;20438;-74
2022/04/10 12:38:43;;;;;;;4.10;1.73;;;;;;;;;;4956722;28;20428;-71
2022/04/10 12:41:09;;;;;;;3.03;1.30;;;;;;;;;;4956390;28;20519;-73
2022/04/10 12:43:35;;;;;;;2.20;1.20;;;;;;;;;;4956679;28;20516;-74
2022/04/10 12:46:08;;;;;;;2.43;1.40;;;;;;;;;;4956604;28;20471;-73
2022/04/10 12:48:36;;;;;;;6.03;1.87;;;;;;;;;;4956651;28;20420;-71
2022/04/10 12:51:07;;;;;;;2.53;1.43;;;;;;;;;;4955860;28;20623;-71
2022/04/10 12:53:33;;;;;;;3.27;1.73;;;;;;;;;;4956560;28;20413;-73
2022/04/10 12:55:59;;;;;;;2.80;1.53;;;;;;;;;;4956238;28;20422;-73
2022/04/10 12:58:31;;;;;;;2.03;1.37;;;;;;;;;;4956497;28;20897;-73
2022/04/10 13:00:57;;;;;;;5.10;1.57;;;;;;;;;;4956038;28;20425;-73
2022/04/10 13:03:27;;;;;;;3.53;1.50;;;;;;;;;;4971203;28;20495;-74
2022/04/10 13:05:54;;;;;;;3.97;1.77;;;;;;;;;;4956287;28;20512;-73
2022/04/10 13:08:22;;;;;;;4.13;1.60;;;;;;;;;;4956262;28;20394;-73
2022/04/10 13:10:52;;;;;;;2.47;1.70;;;;;;;;;;4955902;28;20463;-72
2022/04/10 13:13:19;;;;;;;4.73;1.60;;;;;;;;;;4956110;28;20496;-72
2022/04/10 13:15:45;;;;;;;1.93;1.60;;;;;;;;;;4956230;28;20949;-72
2022/04/10 13:18:11;;;;;;;2.00;1.33;;;;;;;;;;4955829;28;20452;-74
2022/04/10 13:20:38;;;;;;;1.70;1.60;;;;;;;;;;4955739;28;20819;-73
2022/04/10 13:23:04;;;;;;;2.70;1.90;;;;;;;;;;4955863;28;20433;-73
2022/04/10 13:25:35;;;;;;;3.30;1.40;;;;;;;;;;4955986;28;20456;-74
2022/04/10 13:28:01;;;;;;;2.37;1.80;;;;;;;;;;4955870;28;20784;-74
2022/04/10 13:30:27;;;;;;;6.37;1.93;;;;;;;;;;4955347;28;20464;-73
2022/04/10 13:32:53;;;;;;;2.37;1.70;;;;;;;;;;4955855;28;20433;-73
2022/04/10 13:35:19;;;;;;;4.60;1.97;;;;;;;;;;4955890;28;20421;-72
2022/04/10 13:37:45;;;;;;;2.10;1.90;;;;;;;;;;4955067;28;20421;-73
2022/04/10 13:40:12;;;;;;;1.87;1.63;;;;;;;;;;4955271;28;20433;-72
2022/04/10 13:42:39;;;;;;;4.50;2.27;;;;;;;;;;4955583;28;20971;-72
2022/04/10 13:45:05;;;;;;;4.27;2.50;;;;;;;;;;4955918;28;20423;-73
2022/04/10 13:47:31;;;;;;;3.30;1.93;;;;;;;;;;4955642;28;20421;-73
2022/04/10 13:49:57;;;;;;;4.13;2.50;;;;;;;;;;4970185;28;20440;-73
2022/04/10 13:52:23;;;;;;;2.17;1.97;;;;;;;;;;4954957;28;20539;-74
2022/04/10 13:54:49;;;;;;;1.90;1.53;;;;;;;;;;4955489;28;20413;-72
2022/04/10 13:57:16;;;;;;;2.43;1.97;;;;;;;;;;4955563;28;20446;-72
2022/04/10 13:59:42;;;;;;;3.13;2.00;;;;;;;;;;4970459;28;20436;-73
2022/04/10 14:02:08;;;;;;;5.67;1.80;;;;;;;;;;4954915;28;20440;-72
2022/04/10 14:04:36;;;;;;;4.37;1.97;;;;;;;;;;4955246;28;20468;-73
2022/04/10 14:07:01;;;;;;;2.63;2.00;;;;;;;;;;4955369;28;20419;-74
2022/04/10 14:09:27;;;;;;;2.87;1.97;;;;;;;;;;4955409;28;20417;-72
2022/04/10 14:11:53;;;;;;;1.97;1.40;;;;;;;;;;4955178;28;20868;-74
2022/04/10 14:14:19;;;;;;;6.60;1.93;;;;;;;;;;4955332;28;20412;-73
2022/04/10 14:16:45;;;;;;;2.63;1.77;;;;;;;;;;4955517;28;20449;-72
2022/04/10 14:19:12;;;;;;;1.60;1.50;;;;;;;;;;4955447;28;20412;-75
2022/04/10 14:21:39;;;;;;;2.60;1.90;;;;;;;;;;4953881;29;20436;-75
2022/04/10 14:24:05;;;;;;;2.90;1.93;;;;;;;;;;4970083;28;20925;-73
2022/04/10 14:26:31;;;;;;;2.37;2.17;;;;;;;;;;4955074;28;20425;-75
2022/04/10 14:28:58;;;;;;;2.33;1.80;;;;;;;;;;4955144;28;20423;-73
2022/04/10 14:31:24;;;;;;;3.80;3.03;;;;;;;;;;4954572;28;20511;-74
2022/04/10 14:33:50;;;;;;;2.33;1.73;;;;;;;;;;4954862;28;20439;-73
2022/04/10 14:36:16;;;;;;;4.50;2.03;;;;;;;;;;4969791;28;20459;-74
2022/04/10 14:38:42;;;;;;;3.13;2.33;;;;;;;;;;4954862;28;20898;-74
2022/04/10 14:41:08;;;;;;;2.90;1.90;;;;;;;;;;4954531;28;20442;-74
2022/04/10 14:43:35;;;;;;;3.50;1.30;;;;;;;;;;4955100;28;20439;-74